Latest Weather Observations for Camooweal

IDQ60801

Issued at 2:32 pm EST Tuesday 7 July 2015 (issued every 30 minutes, with the page automatically refreshed every 10 minutes)

About weather observations | Map of weather stations | Latest weather observations for QLD | Other Formats
Station Details ID: 037010 Name: CAMOOWEAL TOWNSHIP Lat: -19.92 Lon: 138.12 Height: 231.2 m
Data from the previous 72 hours. | See also: Recent months at Camooweal
Date/Time
EST
Temp
°C
App
Temp
°C
Dew
Point
Rel
Hum
%
Delta-T
°C
Wind Press
QNH
hPa
Press
MSL
hPa
Rain
since 9 am
mm
Dir
 
Spd
km/h
Gust
km/h
Spd
kts
Gust
kts
07/02:30pm 25.5 20.0 -2.1 16 12.4 S 17 24 9 13 1016.9 1016.4 0.0
07/02:00pm 25.1 19.9 -2.5 16 12.3 S 15 22 8 12 1017.2 1016.7 0.0
07/01:30pm 24.8 19.6 -2.7 16 12.1 S 15 24 8 13 1017.7 1017.3 0.0
07/01:00pm 24.1 18.9 -2.4 17 11.7 S 15 26 8 14 1018.2 1017.8 0.0
07/12:30pm 23.4 18.2 -3.0 17 11.5 SSE 15 24 8 13 1018.7 1018.3 0.0
07/12:00pm 22.6 17.0 -2.9 18 11.0 SSE 17 24 9 13 1019.2 1018.8 0.0
07/11:30am 21.5 15.9 -3.1 19 10.5 SSE 17 20 9 11 1019.4 1019.0 0.0
07/11:00am 21.1 15.5 -2.7 20 10.2 SSE 17 24 9 13 1019.6 1019.2 0.0
07/10:30am 19.7 13.6 -3.9 20 9.7 SE 19 24 10 13 1020.1 1019.6 0.0
07/10:00am 19.0 12.8 -4.4 20 9.5 SE 19 26 10 14 1020.4 1019.9 0.0
07/09:30am 17.2 10.8 -4.7 22 8.7 SSE 20 26 11 14 1020.2 1019.7 0.0
07/09:00am 15.9 9.7 -4.6 24 8.0 SSE 19 26 10 14 1020.1 1019.6 0.0
07/08:30am 14.3 9.0 -3.9 28 7.1 SSE 15 19 8 10 1019.6 1019.2 0.0
07/08:00am 9.7 5.9 -3.6 39 4.9 SSW 7 11 4 6 1019.3 1018.9 0.0
07/07:30am 8.8 4.6 -4.0 40 4.7 SSW 9 11 5 6 1019.0 1018.6 0.0
07/07:00am 12.1 7.4 -4.9 30 6.3 S 11 13 6 7 1018.7 1018.3 0.0
07/06:30am 13.5 8.1 -4.6 28 6.9 SSE 15 20 8 11 1018.3 1017.9 0.0
07/06:00am 13.7 8.0 -4.0 29 6.8 SSE 17 22 9 12 1018.1 1017.7 0.0
07/05:30am 13.3 8.0 -3.9 30 6.6 SSE 15 19 8 10 1018.1 1017.7 0.0
07/05:00am 12.4 7.8 -3.8 32 6.2 SSE 11 15 6 8 1017.9 1017.5 0.0
07/04:30am 12.3 7.4 -3.5 33 6.1 SSE 13 17 7 9 1017.8 1017.4 0.0
07/04:00am 11.1 7.0 -3.0 37 5.4 S 9 11 5 6 1017.7 1017.3 0.0
07/03:30am 11.3 7.2 -3.2 36 5.6 S 9 9 5 5 1017.7 1017.3 0.0
07/03:00am 11.8 7.6 -3.5 34 5.8 SSW 9 11 5 6 1017.6 1017.2 0.0
07/02:30am 13.1 8.6 -3.2 32 6.4 S 11 15 6 8 1017.7 1017.3 0.0
07/02:00am 14.1 9.6 -3.2 30 6.8 S 11 15 6 8 1017.7 1017.3 0.0
07/01:30am 15.4 10.2 -3.0 28 7.4 S 15 20 8 11 1017.7 1017.3 0.0
07/01:00am 15.7 10.5 -2.7 28 7.5 SSE 15 19 8 10 1017.7 1017.3 0.0
07/12:30am 16.7 10.8 -2.4 27 7.9 S 19 26 10 14 1017.6 1017.2 0.0
07/12:00am 16.8 11.8 -1.3 29 7.6 S 15 20 8 11 1017.8 1017.4 0.0
 
Date/Time
EST
Temp
°C
App
Temp
°C
Dew
Point
Rel
Hum
%
Delta-T
°C
Wind Press
QNH
hPa
Press
MSL
hPa
Rain
since 9 am
mm
Dir
 
Spd
km/h
Gust
km/h
Spd
kts
Gust
kts
06/11:30pm 16.8 12.2 -1.3 29 7.7 S 13 17 7 9 1017.9 1017.5 0.0
06/11:00pm 17.7 12.8 -0.5 29 7.9 S 15 20 8 11 1017.9 1017.5 0.0
06/10:30pm 17.9 12.6 -0.4 29 8.0 S 17 20 9 11 1018.0 1017.6 0.0
06/10:00pm 18.2 13.4 0.4 30 7.9 S 15 20 8 11 1017.9 1017.5 0.0
06/09:30pm 16.7 12.7 0.4 33 7.1 S 11 13 6 7 1017.8 1017.4 0.0
06/09:00pm 17.2 13.0 1.6 35 7.0 SSW 13 15 7 8 1017.5 1017.1 0.0
06/08:30pm 18.7 15.3 2.1 33 7.6 SSW 9 11 5 6 1017.3 1016.9 0.0
06/08:00pm 19.2 15.7 1.2 30 8.2 S 9 11 5 6 1017.2 1016.7 0.0
06/07:30pm 19.8 15.8 0.8 28 8.6 S 11 11 6 6 1016.9 1016.4 0.0
06/07:00pm 21.3 17.4 1.0 26 9.3 S 11 13 6 7 1016.6 1016.1 0.0
06/06:30pm 23.5 19.3 1.8 24 10.3 S 13 15 7 8 1016.2 1015.7 0.0
06/06:00pm 25.2 20.7 2.0 22 11.2 S 15 19 8 10 - - 0.0
06/05:30pm 26.1 20.8 2.1 21 11.7 SSW 19 22 10 12 - - 0.0
06/05:00pm 26.6 22.3 1.1 19 12.3 S 13 19 7 10 - - 0.0
06/04:30pm 27.2 23.0 1.6 19 12.5 SSW 13 20 7 11 - - 0.0
06/04:00pm 27.2 23.0 1.6 19 12.5 SW 13 20 7 11 - - 0.0
06/03:30pm 27.1 22.9 1.5 19 12.4 SW 13 20 7 11 - - 0.0
06/03:00pm 26.9 23.2 2.1 20 12.2 SW 11 19 6 10 - - 0.0
06/02:30pm 27.2 23.5 2.3 20 12.3 SSE 11 19 6 10 - - 0.0
06/02:00pm 26.8 22.9 1.3 19 12.3 SE 11 19 6 10 1017.0 1016.5 0.0
06/01:30pm 26.5 22.2 1.0 19 12.2 SSE 13 20 7 11 1017.5 1017.1 0.0
06/01:00pm 25.6 21.2 0.3 19 11.9 SE 13 22 7 12 1018.1 1017.7 0.0
06/12:30pm 25.3 20.8 0.0 19 11.8 SE 13 22 7 12 1018.7 1018.3 0.0
06/12:00pm 25.1 20.1 1.3 21 11.3 SSE 17 24 9 13 1019.1 1018.7 0.0
06/11:30am 24.0 19.3 1.0 22 10.8 SE 15 20 8 11 1019.5 1019.1 0.0
06/11:00am 22.9 17.8 0.7 23 10.3 SSE 17 24 9 13 1019.9 1019.4 0.0
06/10:30am 21.6 16.9 0.8 25 9.6 SE 15 20 8 11 1020.3 1019.8 0.0
06/10:00am 19.9 15.5 0.4 27 8.8 SE 13 19 7 10 1020.3 1019.8 0.0
06/09:30am 17.5 13.0 -0.2 30 7.7 ESE 13 19 7 10 1020.1 1019.6 0.0
06/09:00am 14.3 11.0 0.2 38 6.0 S 7 9 4 5 1019.9 1019.4 0.0
06/08:30am 11.4 7.6 -0.4 44 4.8 SSW 9 11 5 6 1019.6 1019.2 0.0
06/08:00am 9.7 5.9 -0.8 48 4.2 SSW 9 11 5 6 1019.1 1018.7 0.0
06/07:30am 10.6 6.5 -0.5 46 4.5 ESE 11 15 6 8 1018.6 1018.2 0.0
06/07:00am 9.6 5.9 0.0 51 3.9 SE 9 9 5 5 1018.3 1017.9 0.0
06/06:30am 9.1 6.8 0.3 54 3.6 SSW 2 6 1 3 1018.2 1017.8 0.0
06/06:00am 9.1 5.7 -0.8 50 3.9 SSE 7 7 4 4 1018.1 1017.7 0.0
06/05:30am 9.9 6.2 -0.3 49 4.1 S 9 9 5 5 1018.0 1017.6 0.0
06/05:00am 10.4 6.6 -0.7 46 4.5 S 9 11 5 6 1018.0 1017.6 0.0
06/04:30am 12.6 8.8 -0.6 40 5.4 SSE 9 15 5 8 1017.9 1017.5 0.0
06/04:00am 13.3 9.6 -0.3 39 5.7 SSE 9 13 5 7 1017.9 1017.5 0.0
06/03:30am 14.0 9.6 0.3 39 5.8 SSE 13 15 7 8 1017.9 1017.5 0.0
06/03:00am 13.7 9.7 0.4 40 5.7 SSE 11 15 6 8 1018.1 1017.7 0.0
06/02:30am 14.0 10.0 0.3 39 5.8 SSE 11 15 6 8 1018.4 1018.0 0.0
06/02:00am 13.4 9.9 1.1 43 5.3 SSE 9 13 5 7 1018.7 1018.3 0.0
06/01:30am 12.2 8.9 0.3 44 5.0 S 7 9 4 5 1018.7 1018.3 0.0
06/01:00am 13.1 9.9 0.5 42 5.3 SSW 7 9 4 5 1018.7 1018.3 0.0
06/12:30am 13.5 9.9 0.5 41 5.5 S 9 11 5 6 1018.8 1018.4 0.0
06/12:00am 14.6 11.0 0.5 38 6.1 S 9 13 5 7 1018.9 1018.5 0.0
 
Date/Time
EST
Temp
°C
App
Temp
°C
Dew
Point
Rel
Hum
%
Delta-T
°C
Wind Press
QNH
hPa
Press
MSL
hPa
Rain
since 9 am
mm
Dir
 
Spd
km/h
Gust
km/h
Spd
kts
Gust
kts
05/11:30pm 15.0 11.3 0.1 36 6.4 S 9 13 5 7 1019.0 1018.6 0.0
05/11:00pm 15.3 11.3 0.3 36 6.5 S 11 13 6 7 1019.0 1018.6 0.0
05/10:30pm 16.6 12.3 0.7 34 7.0 S 13 17 7 9 1018.9 1018.5 0.0
05/10:00pm 17.4 13.1 1.0 33 7.3 S 13 15 7 8 1018.8 1018.4 0.0
05/09:30pm 18.3 13.6 0.9 31 7.8 S 15 19 8 10 1018.7 1018.3 0.0
05/09:00pm 18.2 13.9 1.3 32 7.6 S 13 15 7 8 1018.6 1018.2 0.0
05/08:30pm 18.5 14.3 1.5 32 7.7 SSW 13 15 7 8 1018.4 1018.0 0.0
05/08:00pm 18.8 15.0 1.8 32 7.8 SSW 11 13 6 7 1018.0 1017.6 0.0
05/07:30pm 19.6 15.8 2.0 31 8.2 SSW 11 13 6 7 1017.6 1017.2 0.0
05/07:00pm 20.9 17.3 2.7 30 8.6 SSW 11 13 6 7 1017.4 1017.0 0.0
05/06:30pm 23.0 19.0 3.0 27 9.7 SSW 13 15 7 8 1017.2 1016.7 0.0
05/06:00pm 24.8 20.9 3.5 25 10.6 S 13 17 7 9 - - 0.0
05/05:30pm 25.9 22.3 3.2 23 11.3 S 11 17 6 9 - - 0.0
05/05:00pm 26.8 24.3 4.0 23 11.6 WSW 6 20 3 11 - - 0.0
05/04:30pm 26.8 24.2 4.0 23 11.6 S 7 20 4 11 - - 0.0
05/04:00pm 26.7 24.0 3.9 23 11.5 SSW 7 17 4 9 - - 0.0
05/03:30pm 26.4 23.3 3.6 23 11.4 N 9 15 5 8 - - 0.0
05/03:00pm 26.5 23.8 3.7 23 11.5 SSW 7 17 4 9 1017.1 1016.6 0.0
05/02:30pm 26.3 22.4 3.5 23 11.4 SW 13 20 7 11 1017.3 1016.9 0.0
05/02:00pm 25.9 22.6 2.6 22 11.4 S 9 17 5 9 1017.6 1017.2 0.0
05/01:30pm 25.2 21.6 0.7 20 11.6 SSE 9 19 5 10 1018.0 1017.6 0.0
05/01:00pm 25.0 21.4 0.5 20 11.5 SSE 9 15 5 8 1018.6 1018.2 0.0
05/12:30pm 23.9 19.8 -0.4 20 11.1 SSE 11 22 6 12 1019.2 1018.8 0.0
05/12:00pm 23.5 19.5 0.6 22 10.6 SSE 11 17 6 9 1019.6 1019.2 0.0
05/11:30am 22.2 18.1 -0.5 22 10.2 SSE 11 19 6 10 1020.0 1019.5 0.0
05/11:00am 20.9 16.4 -0.4 24 9.5 SSE 13 17 7 9 1020.2 1019.7 0.0
05/10:30am 19.2 14.7 -0.2 27 8.6 SSE 13 17 7 9 1020.3 1019.8 0.0
05/10:00am 17.7 13.6 -0.5 29 7.9 SSE 11 17 6 9 1020.3 1019.8 0.0
05/09:30am 15.6 11.0 -1.0 32 7.0 S 13 15 7 8 1020.1 1019.6 0.0
05/09:00am 14.0 9.8 -1.2 35 6.3 SSE 11 17 6 9 1019.8 1019.3 0.0
05/08:30am 10.3 6.4 -1.7 43 4.7 SSW 9 11 5 6 1019.5 1019.1 0.0
05/08:00am 8.5 4.2 -1.9 48 4.0 SSW 11 13 6 7 1019.2 1018.8 0.0
05/07:30am 7.7 3.7 -2.0 50 3.7 SSW 9 11 5 6 1019.0 1018.6 0.0
05/07:00am 7.8 3.5 -2.0 50 3.7 SSW 11 11 6 6 1018.8 1018.4 0.0
05/06:30am 7.6 3.2 -2.1 50 3.7 SSW 11 11 6 6 1018.4 1018.0 0.0
05/06:00am 8.0 3.6 -2.6 47 4.0 SSW 11 11 6 6 1018.2 1017.8 0.0
05/05:30am 8.9 4.5 -2.1 46 4.2 SSW 11 11 6 6 1018.1 1017.7 0.0
05/05:00am 9.3 5.3 -2.0 45 4.3 SSW 9 11 5 6 1017.9 1017.5 0.0
05/04:30am 10.1 6.1 -2.5 41 4.8 S 9 13 5 7 1017.9 1017.5 0.0
05/04:00am 11.9 7.6 -1.9 38 5.5 S 11 13 6 7 1017.8 1017.4 0.0
05/03:30am 12.6 7.8 -2.4 35 5.9 S 13 17 7 9 1017.8 1017.4 0.0
05/03:00am 13.2 8.4 -2.3 34 6.2 S 13 19 7 10 1017.8 1017.4 0.0
05/02:30am 12.9 8.0 -3.0 33 6.2 S 13 17 7 9 1017.9 1017.5 0.0
05/02:00am 12.6 7.9 -2.1 36 5.8 S 13 17 7 9 1018.1 1017.7 0.0
05/01:30am 11.3 7.0 -1.8 40 5.2 SSW 11 13 6 7 1018.3 1017.9 0.0
05/01:00am 11.9 7.3 -1.3 40 5.3 SSW 13 15 7 8 1018.3 1017.9 0.0
05/12:30am 12.1 7.5 -1.4 39 5.4 SSW 13 13 7 7 1018.5 1018.1 0.0
05/12:00am 13.6 9.8 -0.8 37 6.0 S 9 13 5 7 1018.5 1018.1 0.0
 
Date/Time
EST
Temp
°C
App
Temp
°C
Dew
Point
Rel
Hum
%
Delta-T
°C
Wind Press
QNH
hPa
Press
MSL
hPa
Rain
since 9 am
mm
Dir
 
Spd
km/h
Gust
km/h
Spd
kts
Gust
kts
04/11:30pm 14.3 10.1 -0.6 36 6.2 S 11 15 6 8 1018.5 1018.1 0.0
04/11:00pm 15.0 10.5 -0.3 35 6.5 S 13 15 7 8 1018.4 1018.0 0.0
04/10:30pm 16.5 11.6 -0.2 32 7.2 S 15 19 8 10 1018.5 1018.1 0.0
04/10:00pm 17.0 12.1 -0.2 31 7.4 S 15 17 8 9 1018.4 1018.0 0.0
04/09:30pm 17.7 12.5 -0.1 30 7.8 S 17 20 9 11 1018.4 1018.0 0.0
04/09:00pm 18.2 13.0 0.4 30 7.9 S 17 22 9 12 1018.2 1017.8 0.0
04/08:30pm 16.7 12.7 0.8 34 7.0 SSW 11 13 6 7 1018.0 1017.6 0.0
04/08:00pm 17.6 14.0 0.7 32 7.5 SW 9 13 5 7 1017.8 1017.4 0.0
04/07:30pm 19.0 15.5 1.5 31 8.0 SSW 9 9 5 5 1017.3 1016.9 0.0
04/07:00pm 19.9 16.8 1.4 29 8.5 SSW 7 9 4 5 1017.0 1016.5 0.0
04/06:30pm 21.7 17.9 1.9 27 9.3 SSW 11 15 6 8 1016.7 1016.2 0.0
04/06:00pm 23.5 19.7 1.8 24 10.3 SSW 11 15 6 8 1016.3 1015.8 0.0
04/05:30pm 24.6 20.5 2.1 23 10.9 SSW 13 19 7 10 - - 0.0
04/05:00pm 25.1 22.2 2.5 23 11.0 SSW 7 17 4 9 - - 0.0
04/04:30pm 25.5 22.3 2.9 23 11.1 SW 9 15 5 8 - - 0.0
04/04:00pm 25.3 21.7 2.7 23 11.1 SW 11 19 6 10 - - 0.0
04/03:30pm 25.1 21.4 2.5 23 11.0 S 11 19 6 10 - - 0.0
04/03:00pm 25.6 22.8 2.9 23 11.2 WSW 7 22 4 12 - - 0.0

Other Formats:

Comma delimited format used in spreadsheet applications
http://www.bom.gov.au/fwo/IDQ60801/IDQ60801.94255.axf

JavaScript Object Notation format (JSON) in row-major order
http://www.bom.gov.au/fwo/IDQ60801/IDQ60801.94255.json